createdAt,value
2022-09-01T00:01:53.576Z,44.26
2022-09-01T00:04:28.062Z,44.58
2022-09-01T00:07:02.309Z,44.80
2022-09-01T00:09:36.219Z,44.91
2022-09-01T00:12:10.389Z,44.53
2022-09-01T00:14:44.193Z,45.10
2022-09-01T00:17:16.965Z,44.75
2022-09-01T00:19:49.753Z,45.27
2022-09-01T00:22:23.818Z,45.33
2022-09-01T00:24:56.876Z,45.21
2022-09-01T00:27:30.851Z,44.87
2022-09-01T00:30:04.515Z,45.00
2022-09-01T00:32:37.565Z,45.08
2022-09-01T00:35:10.506Z,45.08
2022-09-01T00:37:44.596Z,45.18
2022-09-01T00:40:19.288Z,45.14
2022-09-01T00:42:53.808Z,45.07
2022-09-01T00:45:26.882Z,45.40
2022-09-01T00:47:59.592Z,45.38
2022-09-01T00:50:33.282Z,45.52
2022-09-01T00:53:09.443Z,45.55
2022-09-01T00:55:42.835Z,45.88
2022-09-01T00:58:19.661Z,45.67
2022-09-01T01:00:54.716Z,46.12
2022-09-01T01:03:27.904Z,45.38
2022-09-01T01:06:05.008Z,46.03
2022-09-01T01:08:44.436Z,45.78
2022-09-01T01:11:17.947Z,46.24
2022-09-01T01:13:54.658Z,46.00
2022-09-01T01:16:29.569Z,45.98
2022-09-01T01:19:02.535Z,45.99
2022-09-01T01:21:55.881Z,45.86
2022-09-01T01:24:34.167Z,45.84
2022-09-01T01:27:06.972Z,45.69
2022-09-01T01:29:40.211Z,45.93
2022-09-01T01:32:14.363Z,46.73
2022-09-01T01:34:48.856Z,46.07
2022-09-01T01:37:24.008Z,46.57
2022-09-01T01:39:58.513Z,45.86
2022-09-01T01:42:33.630Z,46.34
2022-09-01T01:45:08.091Z,46.72
2022-09-01T01:47:41.095Z,46.06
2022-09-01T01:50:15.079Z,46.43
2022-09-01T01:52:49.770Z,46.23
2022-09-01T01:55:33.071Z,46.49
2022-09-01T01:58:09.873Z,46.22
2022-09-01T02:00:47.458Z,46.50
2022-09-01T02:03:25.084Z,46.89
2022-09-01T02:06:04.726Z,46.54
2022-09-01T02:08:40.772Z,46.87
2022-09-01T02:11:17.276Z,46.57
2022-09-01T02:13:56.198Z,46.34
2022-09-01T02:16:32.637Z,47.28
2022-09-01T02:19:08.909Z,47.29
2022-09-01T02:21:44.633Z,47.08
2022-09-01T02:24:17.414Z,46.90
2022-09-01T02:26:51.798Z,46.71
2022-09-01T02:29:29.991Z,46.71
2022-09-01T02:32:07.052Z,46.99
2022-09-01T02:34:40.831Z,46.98
2022-09-01T02:37:13.625Z,46.64
2022-09-01T02:39:46.516Z,46.95
2022-09-01T02:42:24.148Z,46.40
2022-09-01T02:44:58.761Z,46.46
2022-09-01T02:47:31.537Z,46.97
2022-09-01T02:50:04.951Z,46.90
2022-09-01T02:52:39.948Z,46.52
2022-09-01T02:55:14.073Z,46.29
2022-09-01T02:57:49.397Z,46.42
2022-09-01T03:00:28.994Z,46.55
2022-09-01T03:03:03.048Z,46.54
2022-09-01T03:05:39.178Z,46.99
2022-09-01T03:08:16.359Z,46.79
2022-09-01T03:10:49.529Z,46.91
2022-09-01T03:13:25.292Z,47.26
2022-09-01T03:15:58.065Z,46.88
2022-09-01T03:18:30.778Z,47.25
2022-09-01T03:21:04.158Z,47.19
2022-09-01T03:23:38.075Z,47.17
2022-09-01T03:26:11.376Z,46.74
2022-09-01T03:28:45.954Z,46.80
2022-09-01T03:31:19.940Z,46.90
2022-09-01T03:33:54.467Z,47.43
2022-09-01T03:36:33.933Z,47.03
2022-09-01T03:39:14.635Z,46.97
2022-09-01T03:41:49.910Z,47.62
2022-09-01T03:44:24.318Z,47.00
2022-09-01T03:46:58.422Z,46.85
2022-09-01T03:49:31.181Z,47.39
2022-09-01T03:52:04.499Z,47.30
2022-09-01T03:54:37.502Z,47.10
2022-09-01T03:57:10.575Z,47.21
2022-09-01T03:59:48.182Z,47.29
2022-09-01T04:02:22.953Z,47.48
2022-09-01T04:04:58.987Z,47.28
2022-09-01T04:07:31.877Z,47.20
2022-09-01T04:10:05.302Z,47.51
2022-09-01T04:12:38.715Z,47.32
2022-09-01T04:15:14.829Z,47.41
2022-09-01T04:18:09.748Z,46.80
2022-09-01T04:20:49.452Z,47.26
2022-09-01T04:23:27.220Z,47.23
2022-09-01T04:26:08.914Z,47.30
2022-09-01T04:28:45.603Z,46.92
2022-09-01T04:31:21.959Z,47.01
2022-09-01T04:33:56.533Z,47.04
2022-09-01T04:36:33.975Z,47.50
2022-09-01T04:39:09.487Z,47.30
2022-09-01T04:41:46.873Z,47.21
2022-09-01T04:44:20.162Z,47.36
2022-09-01T04:46:55.369Z,47.07
2022-09-01T04:49:33.774Z,47.29
2022-09-01T04:52:06.727Z,47.33
2022-09-01T04:54:40.303Z,47.65
2022-09-01T04:57:13.377Z,47.37
2022-09-01T04:59:46.825Z,47.06
2022-09-01T05:02:27.249Z,47.52
2022-09-01T05:05:00.519Z,47.60
2022-09-01T05:07:37.534Z,47.70
2022-09-01T05:10:10.912Z,47.32
2022-09-01T05:13:09.875Z,47.25
2022-09-01T05:15:46.552Z,47.64
2022-09-01T05:18:23.394Z,47.30
2022-09-01T05:20:57.578Z,47.26
2022-09-01T05:23:32.040Z,47.27
2022-09-01T05:26:14.685Z,46.96
2022-09-01T05:28:49.485Z,47.25
2022-09-01T05:31:23.122Z,46.95
2022-09-01T05:33:58.135Z,47.29
2022-09-01T05:36:33.701Z,47.56
2022-09-01T05:39:08.060Z,47.76
2022-09-01T05:41:42.307Z,47.33
2022-09-01T05:44:16.684Z,47.35
2022-09-01T05:46:50.613Z,47.57
2022-09-01T05:49:26.112Z,47.74
2022-09-01T05:51:58.965Z,47.34
2022-09-01T05:54:33.834Z,47.58
2022-09-01T05:57:30.343Z,47.13
2022-09-01T06:00:00.307Z,47.98
2022-09-01T06:02:33.790Z,47.18
2022-09-01T06:05:09.566Z,47.75
2022-09-01T06:07:44.253Z,47.65
2022-09-01T06:10:18.057Z,47.29
2022-09-01T06:12:54.473Z,47.96
2022-09-01T06:15:29.492Z,47.61
2022-09-01T06:18:02.989Z,47.48
2022-09-01T06:20:42.945Z,47.26
2022-09-01T06:23:18.757Z,47.61
2022-09-01T06:25:51.974Z,48.39
2022-09-01T06:28:29.515Z,47.92
2022-09-01T06:31:07.253Z,47.53
2022-09-01T06:33:40.311Z,47.88
2022-09-01T06:36:15.892Z,47.59
2022-09-01T06:38:51.764Z,47.64
2022-09-01T06:41:25.959Z,48.20
2022-09-01T06:44:03.201Z,48.12
2022-09-01T06:46:36.196Z,48.25
2022-09-01T06:49:11.598Z,48.51
2022-09-01T06:51:51.777Z,48.14
2022-09-01T06:54:26.556Z,48.15
2022-09-01T06:57:00.481Z,47.95
2022-09-01T06:59:34.972Z,48.21
2022-09-01T07:12:24.296Z,48.03
2022-09-01T07:17:42.362Z,48.40
2022-09-01T07:20:30.975Z,47.75
2022-09-01T07:23:06.455Z,47.68
2022-09-01T07:26:02.580Z,48.03
2022-09-01T07:28:38.808Z,47.72
2022-09-01T07:39:57.368Z,48.03
2022-09-01T07:43:22.253Z,47.42
2022-09-01T07:46:41.798Z,47.78
2022-09-01T07:50:08.450Z,47.61
2022-09-01T07:52:12.653Z,47.95
2022-09-01T07:54:49.067Z,47.47
2022-09-01T07:57:23.023Z,47.72
2022-09-01T07:59:57.663Z,47.50
2022-09-01T08:02:47.560Z,47.43
2022-09-01T08:05:26.900Z,47.37
2022-09-01T08:08:01.101Z,47.33
2022-09-01T08:10:39.950Z,47.36
2022-09-01T08:13:15.853Z,46.88
2022-09-01T08:16:07.161Z,47.15
2022-09-01T08:18:49.479Z,47.30
2022-09-01T08:21:34.065Z,47.07
2022-09-01T08:24:27.609Z,46.03
2022-09-01T08:27:00.398Z,46.27
2022-09-01T08:29:33.655Z,46.46
2022-09-01T08:32:08.193Z,46.68
2022-09-01T08:34:43.504Z,46.77
2022-09-01T08:37:16.885Z,46.30
2022-09-01T08:42:58.380Z,46.07
2022-09-01T08:45:34.303Z,45.58
2022-09-01T08:51:20.932Z,45.44
2022-09-01T08:54:18.073Z,45.47
2022-09-01T08:57:06.979Z,45.74
2022-09-01T08:59:59.027Z,44.98
2022-09-01T09:02:49.891Z,45.00
2022-09-01T09:05:44.304Z,45.16
2022-09-01T09:08:44.600Z,44.18
2022-09-01T09:11:35.903Z,43.80
2022-09-01T09:14:16.131Z,43.52
2022-09-01T09:16:53.919Z,42.77
2022-09-01T09:19:31.237Z,43.63
2022-09-01T09:22:11.319Z,42.94
2022-09-01T09:28:03.022Z,42.90
2022-09-01T09:30:35.904Z,42.74
2022-09-01T09:33:47.722Z,42.47
2022-09-01T09:36:20.414Z,42.61
2022-09-01T09:39:13.121Z,41.83
2022-09-01T09:42:07.665Z,41.69
2022-09-01T09:44:45.389Z,41.36
2022-09-01T09:47:44.223Z,41.06
2022-09-01T09:50:25.633Z,40.72
2022-09-01T09:53:26.948Z,40.86
2022-09-01T09:56:05.705Z,39.92
2022-09-01T09:58:42.808Z,40.30
2022-09-01T10:01:30.187Z,39.76
2022-09-01T10:04:04.246Z,40.04
2022-09-01T10:06:41.537Z,39.53
2022-09-01T10:09:17.989Z,39.31
2022-09-01T10:11:54.611Z,39.64
2022-09-01T10:14:53.197Z,39.33
2022-09-01T10:17:32.413Z,39.18
2022-09-01T10:20:11.398Z,38.11
2022-09-01T10:22:44.969Z,38.76
2022-09-01T10:25:21.682Z,38.10
2022-09-01T10:28:00.379Z,38.56
2022-09-01T10:30:33.533Z,37.77
2022-09-01T10:33:11.831Z,38.38
2022-09-01T10:35:54.047Z,37.09
2022-09-01T10:38:29.124Z,38.46
2022-09-01T10:41:09.101Z,37.41
2022-09-01T10:43:50.496Z,36.96
2022-09-01T10:46:50.922Z,37.30
2022-09-01T10:49:59.839Z,36.22
2022-09-01T10:53:00.265Z,36.36
2022-09-01T10:55:46.463Z,36.01
2022-09-01T11:05:14.815Z,35.08
2022-09-01T11:08:00.324Z,35.47
2022-09-01T11:10:56.114Z,35.11
2022-09-01T11:13:38.647Z,34.75
2022-09-01T11:19:41.473Z,34.26
2022-09-01T11:22:38.119Z,34.27
2022-09-01T11:25:40.768Z,33.72
2022-09-01T11:28:38.966Z,34.10
2022-09-01T11:31:20.900Z,34.19
2022-09-01T11:34:04.244Z,33.87
2022-09-01T11:36:48.580Z,33.76
2022-09-01T11:39:43.787Z,32.99
2022-09-01T11:42:24.323Z,32.84
2022-09-01T11:45:03.049Z,32.48
2022-09-01T11:47:39.789Z,32.84
2022-09-01T11:50:20.267Z,32.76
2022-09-01T11:53:01.317Z,32.44
2022-09-01T11:55:40.033Z,31.83
2022-09-01T11:58:17.913Z,30.91
2022-09-01T12:00:50.819Z,32.24
2022-09-01T12:03:26.916Z,31.79
2022-09-01T12:06:02.804Z,30.50
2022-09-01T12:08:39.318Z,31.58
2022-09-01T12:11:14.379Z,32.08
2022-09-01T12:13:57.309Z,30.58
2022-09-01T12:16:32.616Z,29.75
2022-09-01T12:19:07.069Z,31.11
2022-09-01T12:21:42.699Z,30.36
2022-09-01T12:24:20.737Z,29.94
2022-09-01T12:26:55.752Z,30.50
2022-09-01T12:29:32.005Z,30.61
2022-09-01T12:32:05.805Z,31.01
2022-09-01T12:34:42.440Z,30.26
2022-09-01T12:37:23.443Z,29.98
2022-09-01T12:39:59.361Z,28.23
2022-09-01T12:42:40.942Z,28.85
2022-09-01T12:45:14.466Z,29.30
2022-09-01T12:47:50.571Z,28.73
2022-09-01T12:50:43.637Z,28.12
2022-09-01T12:53:21.350Z,28.22
2022-09-01T12:56:00.746Z,28.81
2022-09-01T12:58:34.034Z,29.67
2022-09-01T13:01:16.443Z,28.78
2022-09-01T13:04:08.898Z,27.81
2022-09-01T13:06:42.332Z,29.00
2022-09-01T13:09:15.108Z,27.72
2022-09-01T13:12:06.337Z,27.14
2022-09-01T13:14:39.770Z,26.92
2022-09-01T13:17:14.682Z,26.97
2022-09-01T13:19:47.582Z,27.07
2022-09-01T13:22:20.279Z,27.81
2022-09-01T13:24:53.073Z,27.24
2022-09-01T13:27:27.644Z,25.75
2022-09-01T13:30:00.400Z,26.10
2022-09-01T13:32:33.547Z,25.90
2022-09-01T13:35:07.304Z,25.30
2022-09-01T13:37:40.027Z,27.43
2022-09-01T13:40:15.665Z,25.67
2022-09-01T13:42:54.801Z,25.48
2022-09-01T13:45:28.553Z,26.53
2022-09-01T13:48:18.811Z,25.82
2022-09-01T13:53:46.608Z,27.33
2022-09-01T13:56:19.463Z,26.06
2022-09-01T13:58:53.583Z,26.76
2022-09-01T14:01:26.336Z,27.35
2022-09-01T14:04:02.874Z,25.78
2022-09-01T14:06:40.855Z,25.11
2022-09-01T14:09:17.590Z,24.83
2022-09-01T14:11:54.202Z,26.35
2022-09-01T14:15:10.694Z,24.59
2022-09-01T14:17:21.533Z,24.41
2022-09-01T14:19:54.501Z,25.68
2022-09-01T14:22:27.266Z,24.18
2022-09-01T14:25:00.409Z,24.57
2022-09-01T14:27:33.276Z,24.73
2022-09-01T14:30:10.606Z,24.39
2022-09-01T14:32:43.396Z,23.90
2022-09-01T14:35:17.707Z,22.79
2022-09-01T14:37:50.410Z,23.96
2022-09-01T14:40:24.783Z,24.59
2022-09-01T14:42:57.647Z,23.72
2022-09-01T14:45:32.632Z,23.38
2022-09-01T14:48:06.275Z,23.21
2022-09-01T14:50:42.324Z,23.29
2022-09-01T14:53:15.551Z,22.40
2022-09-01T14:55:55.565Z,23.57
2022-09-01T14:58:30.321Z,23.02
2022-09-01T15:01:23.521Z,22.76
2022-09-01T15:03:57.081Z,22.46
2022-09-01T15:06:30.146Z,23.08
2022-09-01T15:09:03.584Z,22.97
2022-09-01T15:11:36.465Z,22.77
2022-09-01T15:14:17.399Z,22.36
2022-09-01T15:16:51.828Z,22.14
2022-09-01T15:19:25.072Z,22.13
2022-09-01T15:21:57.816Z,22.16
2022-09-01T15:24:30.575Z,22.25
2022-09-01T15:27:03.549Z,21.71
2022-09-01T15:29:44.846Z,21.85
2022-09-01T15:32:20.824Z,21.80
2022-09-01T15:35:01.253Z,22.13
2022-09-01T15:37:34.028Z,21.94
2022-09-01T15:40:08.379Z,21.63
2022-09-01T15:42:41.145Z,22.17
2022-09-01T15:45:17.244Z,22.53
2022-09-01T15:47:51.720Z,22.49
2022-09-01T15:50:27.635Z,22.43
2022-09-01T15:53:02.875Z,22.98
2022-09-01T15:55:40.884Z,22.38
2022-09-01T15:58:15.721Z,22.46
2022-09-01T16:00:48.760Z,22.81
2022-09-01T16:03:24.312Z,23.29
2022-09-01T16:05:57.090Z,23.29
2022-09-01T16:08:30.536Z,24.02
2022-09-01T16:11:09.602Z,23.95
2022-09-01T16:13:43.397Z,23.65
2022-09-01T16:16:42.614Z,23.84
2022-09-01T16:19:28.290Z,23.96
2022-09-01T16:22:10.953Z,24.33
2022-09-01T16:24:46.026Z,23.91
2022-09-01T16:27:22.236Z,24.22
2022-09-01T16:29:57.292Z,24.52
2022-09-01T16:32:31.473Z,24.66
2022-09-01T16:35:06.939Z,24.90
2022-09-01T16:37:47.057Z,25.20
2022-09-01T16:40:35.260Z,25.07
2022-09-01T16:43:16.219Z,25.34
2022-09-01T16:45:58.289Z,25.06
2022-09-01T16:48:41.332Z,26.12
2022-09-01T16:51:23.272Z,26.08
2022-09-01T16:54:05.381Z,25.91
2022-09-01T16:56:47.860Z,26.04
2022-09-01T16:59:31.223Z,26.17
2022-09-01T17:02:21.738Z,26.39
2022-09-01T17:05:02.657Z,26.49
2022-09-01T17:07:45.266Z,26.58
2022-09-01T17:10:30.499Z,26.70
2022-09-01T17:13:17.303Z,26.64
2022-09-01T17:15:56.086Z,26.99
2022-09-01T17:18:34.586Z,27.20
2022-09-01T17:21:15.365Z,27.45
2022-09-01T17:23:56.789Z,27.54
2022-09-01T17:26:30.678Z,27.55
2022-09-01T17:29:10.236Z,27.62
2022-09-01T17:31:55.884Z,27.80
2022-09-01T17:34:41.891Z,28.08
2022-09-01T17:37:28.912Z,27.83
2022-09-01T17:40:15.690Z,28.19
2022-09-01T17:42:55.021Z,28.45
2022-09-01T17:45:31.972Z,28.19
2022-09-01T17:48:13.371Z,28.40
2022-09-01T17:51:01.687Z,28.51
2022-09-01T17:53:46.367Z,28.86
2022-09-01T17:56:34.651Z,28.93
2022-09-01T17:59:15.565Z,29.18
2022-09-01T18:01:58.433Z,29.21
2022-09-01T18:04:43.604Z,29.27
2022-09-01T18:07:28.314Z,29.34
2022-09-01T18:10:04.547Z,29.36
2022-09-01T18:12:41.382Z,29.71
2022-09-01T18:15:17.809Z,29.82
2022-09-01T18:17:55.590Z,30.15
2022-09-01T18:20:33.815Z,30.20
2022-09-01T18:23:09.872Z,29.92
2022-09-01T18:25:49.069Z,30.02
2022-09-01T18:28:23.330Z,30.27
2022-09-01T18:31:02.049Z,30.44
2022-09-01T18:33:45.201Z,30.59
2022-09-01T18:36:33.792Z,30.51
2022-09-01T18:39:12.735Z,30.55
2022-09-01T18:42:39.646Z,30.46
2022-09-01T18:45:25.315Z,30.98
2022-09-01T18:48:51.423Z,30.93
2022-09-01T18:51:37.997Z,30.99
2022-09-01T18:54:19.844Z,31.20
2022-09-01T18:57:05.734Z,31.06
2022-09-01T18:59:55.443Z,31.53
2022-09-01T19:02:53.057Z,31.25
2022-09-01T19:05:34.200Z,31.60
2022-09-01T19:08:17.588Z,31.45
2022-09-01T19:10:59.183Z,31.62
2022-09-01T19:13:47.173Z,31.66
2022-09-01T19:16:29.898Z,31.74
2022-09-01T19:19:15.834Z,32.14
2022-09-01T19:21:54.692Z,32.00
2022-09-01T19:24:34.367Z,32.28
2022-09-01T19:27:11.829Z,32.40
2022-09-01T19:29:49.749Z,32.33
2022-09-01T19:32:26.925Z,32.19
2022-09-01T19:35:10.699Z,32.29
2022-09-01T19:37:44.426Z,32.37
2022-09-01T19:40:24.843Z,33.01
2022-09-01T19:43:04.281Z,33.08
2022-09-01T19:45:48.791Z,32.71
2022-09-01T19:48:28.008Z,32.93
2022-09-01T19:51:06.371Z,32.70
2022-09-01T19:53:42.944Z,32.90
2022-09-01T19:56:21.442Z,32.94
2022-09-01T19:59:02.286Z,33.17
2022-09-01T20:01:41.480Z,33.29
2022-09-01T20:04:26.901Z,33.13
2022-09-01T20:07:02.891Z,33.60
2022-09-01T20:09:42.071Z,33.34
2022-09-01T20:12:23.452Z,33.74
2022-09-01T20:15:08.414Z,33.57
2022-09-01T20:17:47.332Z,33.84
2022-09-01T20:20:24.274Z,33.90
2022-09-01T20:23:04.281Z,33.76
2022-09-01T20:25:43.089Z,34.21
2022-09-01T20:28:26.873Z,34.60
2022-09-01T20:31:10.991Z,34.16
2022-09-01T20:33:48.540Z,34.11
2022-09-01T20:36:26.407Z,34.44
2022-09-01T20:39:23.375Z,34.52
2022-09-01T20:42:03.464Z,34.92
2022-09-01T20:44:43.247Z,34.83
2022-09-01T20:47:15.960Z,35.13
2022-09-01T20:49:49.876Z,34.94
2022-09-01T20:52:33.292Z,35.32
2022-09-01T20:55:14.025Z,35.13
2022-09-01T20:57:56.065Z,35.66
2022-09-01T21:00:31.180Z,35.25
2022-09-01T21:03:12.001Z,35.24
2022-09-01T21:05:53.490Z,35.27
2022-09-01T21:08:42.619Z,35.25
2022-09-01T21:11:24.881Z,35.58
2022-09-01T21:14:14.020Z,35.63
2022-09-01T21:16:58.599Z,35.60
2022-09-01T21:19:40.769Z,35.61
2022-09-01T21:22:18.468Z,35.97
2022-09-01T21:24:54.238Z,36.32
2022-09-01T21:27:40.223Z,35.98
2022-09-01T21:30:16.009Z,36.21
2022-09-01T21:32:49.229Z,36.47
2022-09-01T21:35:22.899Z,36.49
2022-09-01T21:37:55.684Z,36.43
2022-09-01T21:40:28.589Z,36.58
2022-09-01T21:43:04.694Z,36.47
2022-09-01T21:45:39.054Z,36.48
2022-09-01T21:48:12.274Z,36.21
2022-09-01T21:50:45.447Z,36.73
2022-09-01T21:53:18.196Z,36.96
2022-09-01T21:55:51.000Z,36.95
2022-09-01T21:58:25.160Z,36.66
2022-09-01T22:00:58.736Z,36.75
2022-09-01T22:03:31.862Z,37.02
2022-09-01T22:06:05.665Z,37.00
2022-09-01T22:08:38.921Z,36.53
2022-09-01T22:11:11.701Z,36.47
2022-09-01T22:13:45.988Z,36.30
2022-09-01T22:16:20.193Z,37.05
2022-09-01T22:18:53.148Z,37.05
2022-09-01T22:21:25.818Z,37.05
2022-09-01T22:23:59.455Z,36.82
2022-09-01T22:26:33.461Z,36.89
2022-09-01T22:29:10.297Z,36.95
2022-09-01T22:31:42.978Z,37.19
2022-09-01T22:34:15.709Z,37.30
2022-09-01T22:36:50.636Z,37.22
2022-09-01T22:39:25.166Z,37.13
2022-09-01T22:41:58.435Z,37.47
2022-09-01T22:44:32.754Z,37.40
2022-09-01T22:47:06.014Z,37.57
2022-09-01T22:49:38.751Z,37.30
2022-09-01T22:52:11.441Z,37.60
2022-09-01T22:54:46.980Z,37.33
2022-09-01T22:57:20.202Z,37.27
2022-09-01T22:59:54.159Z,37.19
2022-09-01T23:02:27.266Z,37.16
2022-09-01T23:05:00.364Z,37.41
2022-09-01T23:07:33.380Z,37.63
2022-09-01T23:10:09.420Z,37.30
2022-09-01T23:12:42.288Z,37.57
2022-09-01T23:15:16.434Z,37.52
2022-09-01T23:17:49.288Z,37.58
2022-09-01T23:20:22.362Z,37.57
2022-09-01T23:22:55.145Z,37.79
2022-09-01T23:25:28.380Z,37.71
2022-09-01T23:28:01.289Z,37.88
2022-09-01T23:30:35.872Z,37.66
2022-09-01T23:33:08.633Z,37.92
2022-09-01T23:35:42.286Z,37.96
2022-09-01T23:38:16.467Z,37.79
2022-09-01T23:40:52.402Z,37.86
2022-09-01T23:43:27.521Z,37.71
2022-09-01T23:46:01.870Z,37.90
2022-09-01T23:48:35.205Z,38.00
2022-09-01T23:51:11.691Z,37.87
2022-09-01T23:53:45.123Z,37.97
2022-09-01T23:56:19.761Z,37.62
2022-09-01T23:58:53.051Z,37.98
